WMKJ METAR and TAF | Updated Today

WMKJ METAR

Senai International Airport

Observation time: 40 min. ago

WMKJ 052100Z VRB02KT 8000 FEW010 24/23 Q1008

Need help? Read our tutorial on how to read METARs or read the parsed version below.

Senai International Airport (WMKJ) METAR

  • Weather conditions on Sun, 05 Feb 2023 21:00:00 +0000 (40 min. ago):
  • Present conditions: Dry
  • Clouds: A few at 305 meters
  • Visibility: 8000 meters
  • Wind: Variable at 2 knots
  • Temperature: 24 celsius
  • Dew point: 23 celsius
  • Pressure: 1008 millibars
  • Remarks: None


Useful to know...

WMKJ TAF

Senai International Airport

TAF WMKJ 051700Z 0518/0618 32005KT 9999 FEW020 TEMPO 0523/0603 27008G18KT 4000 TSRA FEW017CB SCT018
Observation time: 4:40 hr. ago
Need help? Read our tutorial on how to read TAFs or read the parsed version below.

Parsed version of TAF for Senai International Airport (WMKJ)

  • From 05 February at 18:00 UTC, to day 06 of the month at 18:00 UTC
  • Clouds: A few at 610 meters
  • Visibility: Greater than 10 km
  • Wind: 320 degrees at 5
  • Expected to arise temporarily, from 05 February at 23:00 UTC, to day 06 of the month at 03:00 UTC
  • Clouds: A few at 518 meters, cumulonimbus; scattered at 549 meters
  • Visibility: 4000 meters
  • Wind: 270 degrees at 8
  • Other: Thunderstorms rain